sensor_id;sensor_type;location;lat;lon;timestamp;pressure;altitude;pressure_sealevel;temperature
37414;BMP280;23279;46.472;30.760;2023-04-25T00:00:47;77820.25;;;-146.33
37414;BMP280;23279;46.472;30.760;2023-04-25T00:05:45;77852.81;;;-146.33
37414;BMP280;23279;46.472;30.760;2023-04-25T00:08:11;77822.28;;;-146.33
37414;BMP280;23279;46.472;30.760;2023-04-25T00:10:36;77816.19;;;-146.33
37414;BMP280;23279;46.472;30.760;2023-04-25T00:13:01;77846.72;;;-146.33
37414;BMP280;23279;46.472;30.760;2023-04-25T00:15:27;77860.94;;;-146.33
37414;BMP280;23279;46.472;30.760;2023-04-25T00:17:56;77865.03;;;-146.33
37414;BMP280;23279;46.472;30.760;2023-04-25T00:20:21;77795.84;;;-146.33
37414;BMP280;23279;46.472;30.760;2023-04-25T00:22:49;77747.00;;;-146.33
37414;BMP280;23279;46.472;30.760;2023-04-25T00:25:14;77708.34;;;-146.33
37414;BMP280;23279;46.472;30.760;2023-04-25T00:27:39;77734.78;;;-146.33
37414;BMP280;23279;46.472;30.760;2023-04-25T00:30:07;77730.72;;;-146.33
37414;BMP280;23279;46.472;30.760;2023-04-25T00:32:32;77696.13;;;-146.33
37414;BMP280;23279;46.472;30.760;2023-04-25T00:34:58;77704.28;;;-146.33
37414;BMP280;23279;46.472;30.760;2023-04-25T00:37:24;77667.66;;;-146.33
37414;BMP280;23279;46.472;30.760;2023-04-25T00:39:50;77584.22;;;-146.33
37414;BMP280;23279;46.472;30.760;2023-04-25T00:42:15;77539.47;;;-146.33
37414;BMP280;23279;46.472;30.760;2023-04-25T00:44:42;77531.34;;;-146.33
37414;BMP280;23279;46.472;30.760;2023-04-25T00:47:08;77451.97;;;-146.33
37414;BMP280;23279;46.472;30.760;2023-04-25T00:49:35;77392.97;;;-146.33
37414;BMP280;23279;46.472;30.760;2023-04-25T00:52:01;77350.25;;;-146.33
37414;BMP280;23279;46.472;30.760;2023-04-25T00:54:26;77268.88;;;-146.33
37414;BMP280;23279;46.472;30.760;2023-04-25T00:56:52;77230.22;;;-146.33
37414;BMP280;23279;46.472;30.760;2023-04-25T00:59:19;77183.44;;;-146.33
37414;BMP280;23279;46.472;30.760;2023-04-25T01:01:44;77161.06;;;-146.33
37414;BMP280;23279;46.472;30.760;2023-04-25T01:04:10;77118.34;;;-146.33
37414;BMP280;23279;46.472;30.760;2023-04-25T01:06:36;77108.19;;;-146.33
37414;BMP280;23279;46.472;30.760;2023-04-25T01:09:02;77087.84;;;-146.33
37414;BMP280;23279;46.472;30.760;2023-04-25T01:11:28;77053.25;;;-146.33
37414;BMP280;23279;46.472;30.760;2023-04-25T01:13:53;77043.06;;;-146.33
37414;BMP280;23279;46.472;30.760;2023-04-25T01:16:18;76963.75;;;-146.33
37414;BMP280;23279;46.472;30.760;2023-04-25T01:18:45;76959.69;;;-146.33
37414;BMP280;23279;46.472;30.760;2023-04-25T01:21:12;76931.19;;;-146.33
37414;BMP280;23279;46.472;30.760;2023-04-25T01:23:39;76900.69;;;-146.33
37414;BMP280;23279;46.472;30.760;2023-04-25T01:26:06;76815.25;;;-146.33
37414;BMP280;23279;46.472;30.760;2023-04-25T01:28:33;76750.16;;;-146.33
37414;BMP280;23279;46.472;30.760;2023-04-25T01:30:59;76693.22;;;-146.33
37414;BMP280;23279;46.472;30.760;2023-04-25T01:33:24;76650.50;;;-146.33
37414;BMP280;23279;46.472;30.760;2023-04-25T01:35:50;76628.13;;;-146.33
37414;BMP280;23279;46.472;30.760;2023-04-25T01:38:15;76581.34;;;-146.33
37414;BMP280;23279;46.472;30.760;2023-04-25T01:40:41;76544.75;;;-146.33
37414;BMP280;23279;46.472;30.760;2023-04-25T01:43:07;76461.34;;;-146.33
37414;BMP280;23279;46.472;30.760;2023-04-25T01:45:40;76390.16;;;-146.33
37414;BMP280;23279;46.472;30.760;2023-04-25T01:48:10;76351.53;;;-146.33
37414;BMP280;23279;46.472;30.760;2023-04-25T01:50:38;76282.38;;;-146.33
37414;BMP280;23279;46.472;30.760;2023-04-25T01:53:04;76255.94;;;-146.33
37414;BMP280;23279;46.472;30.760;2023-04-25T01:55:30;76217.31;;;-146.33
37414;BMP280;23279;46.472;30.760;2023-04-25T01:57:55;76160.38;;;-146.33
37414;BMP280;23279;46.472;30.760;2023-04-25T02:00:21;76095.28;;;-146.33
37414;BMP280;23279;46.472;30.760;2023-04-25T02:02:46;76042.41;;;-146.33
37414;BMP280;23279;46.472;30.760;2023-04-25T02:05:12;76013.94;;;-146.33
37414;BMP280;23279;46.472;30.760;2023-04-25T02:07:37;75959.03;;;-146.33
37414;BMP280;23279;46.472;30.760;2023-04-25T02:10:03;75934.66;;;-146.33
37414;BMP280;23279;46.472;30.760;2023-04-25T02:12:29;75916.34;;;-146.33
37414;BMP280;23279;46.472;30.760;2023-04-25T02:14:54;75904.16;;;-146.33
37414;BMP280;23279;46.472;30.760;2023-04-25T02:17:20;75908.22;;;-146.33
37414;BMP280;23279;46.472;30.760;2023-04-25T02:19:47;75904.16;;;-146.33
37414;BMP280;23279;46.472;30.760;2023-04-25T02:22:12;75965.16;;;-146.33
37414;BMP280;23279;46.472;30.760;2023-04-25T02:24:38;75961.06;;;-146.33
37414;BMP280;23279;46.472;30.760;2023-04-25T02:27:04;75995.66;;;-146.33
37414;BMP280;23279;46.472;30.760;2023-04-25T02:29:29;75995.66;;;-146.33
37414;BMP280;23279;46.472;30.760;2023-04-25T02:31:55;76009.88;;;-146.33
37414;BMP280;23279;46.472;30.760;2023-04-25T02:34:21;76009.88;;;-146.33
37414;BMP280;23279;46.472;30.760;2023-04-25T02:36:48;76018.03;;;-146.33
37414;BMP280;23279;46.472;30.760;2023-04-25T02:39:13;76018.03;;;-146.33
37414;BMP280;23279;46.472;30.760;2023-04-25T02:41:39;76066.81;;;-146.33
37414;BMP280;23279;46.472;30.760;2023-04-25T02:44:04;76083.09;;;-146.33
37414;BMP280;23279;46.472;30.760;2023-04-25T02:46:30;76107.50;;;-146.33
37414;BMP280;23279;46.472;30.760;2023-04-25T02:48:55;76093.25;;;-146.33
37414;BMP280;23279;46.472;30.760;2023-04-25T02:51:21;76097.31;;;-146.33
37414;BMP280;23279;46.472;30.760;2023-04-25T02:53:46;76085.13;;;-146.33
37414;BMP280;23279;46.472;30.760;2023-04-25T02:56:11;76070.88;;;-146.33
37414;BMP280;23279;46.472;30.760;2023-04-25T02:58:37;76038.34;;;-146.33
37414;BMP280;23279;46.472;30.760;2023-04-25T03:01:02;76077.00;;;-146.33
37414;BMP280;23279;46.472;30.760;2023-04-25T03:03:28;76103.44;;;-146.33
37414;BMP280;23279;46.472;30.760;2023-04-25T03:05:53;76083.09;;;-146.33
37414;BMP280;23279;46.472;30.760;2023-04-25T03:08:19;76144.09;;;-146.33
37414;BMP280;23279;46.472;30.760;2023-04-25T03:10:45;76184.75;;;-146.33
37414;BMP280;23279;46.472;30.760;2023-04-25T03:13:10;76237.66;;;-146.33
37414;BMP280;23279;46.472;30.760;2023-04-25T03:15:36;76278.31;;;-146.33
37414;BMP280;23279;46.472;30.760;2023-04-25T03:18:02;76288.47;;;-146.33
37414;BMP280;23279;46.472;30.760;2023-04-25T03:20:27;76290.50;;;-146.33
37414;BMP280;23279;46.472;30.760;2023-04-25T03:22:53;76264.06;;;-146.33
37414;BMP280;23279;46.472;30.760;2023-04-25T03:25:18;76274.25;;;-146.33
37414;BMP280;23279;46.472;30.760;2023-04-25T03:27:44;76331.19;;;-146.33
37414;BMP280;23279;46.472;30.760;2023-04-25T03:30:10;76351.53;;;-146.33
37414;BMP280;23279;46.472;30.760;2023-04-25T03:32:36;76453.22;;;-146.33
37414;BMP280;23279;46.472;30.760;2023-04-25T03:35:01;76524.41;;;-146.33
37414;BMP280;23279;46.472;30.760;2023-04-25T03:37:27;76630.16;;;-146.33
37414;BMP280;23279;46.472;30.760;2023-04-25T03:39:52;76762.38;;;-146.33
37414;BMP280;23279;46.472;30.760;2023-04-25T03:42:17;76847.81;;;-146.33
37414;BMP280;23279;46.472;30.760;2023-04-25T03:44:43;76874.25;;;-146.33
37414;BMP280;23279;46.472;30.760;2023-04-25T03:47:08;76900.69;;;-146.33
37414;BMP280;23279;46.472;30.760;2023-04-25T03:49:34;76886.44;;;-146.33
37414;BMP280;23279;46.472;30.760;2023-04-25T03:52:01;76874.25;;;-146.33
37414;BMP280;23279;46.472;30.760;2023-04-25T03:54:27;76904.75;;;-146.33
37414;BMP280;23279;46.472;30.760;2023-04-25T03:56:52;76957.66;;;-146.33
37414;BMP280;23279;46.472;30.760;2023-04-25T03:59:17;77039.00;;;-146.33
37414;BMP280;23279;46.472;30.760;2023-04-25T04:01:43;77193.63;;;-146.33
37414;BMP280;23279;46.472;30.760;2023-04-25T04:04:08;77405.19;;;-146.33
37414;BMP280;23279;46.472;30.760;2023-04-25T04:06:34;77578.13;;;-146.33
37414;BMP280;23279;46.472;30.760;2023-04-25T04:08:59;77606.63;;;-146.33
37414;BMP280;23279;46.472;30.760;2023-04-25T04:11:25;77612.72;;;-146.33
37414;BMP280;23279;46.472;30.760;2023-04-25T04:13:51;77584.22;;;-146.33
37414;BMP280;23279;46.472;30.760;2023-04-25T04:16:16;77629.00;;;-146.33
37414;BMP280;23279;46.472;30.760;2023-04-25T04:18:41;77626.97;;;-146.33
37414;BMP280;23279;46.472;30.760;2023-04-25T04:21:07;77633.06;;;-146.33
37414;BMP280;23279;46.472;30.760;2023-04-25T04:23:32;77649.34;;;-146.33
37414;BMP280;23279;46.472;30.760;2023-04-25T04:25:58;77675.78;;;-146.33
37414;BMP280;23279;46.472;30.760;2023-04-25T04:28:24;77742.94;;;-146.33
37414;BMP280;23279;46.472;30.760;2023-04-25T04:30:50;77783.63;;;-146.33
37414;BMP280;23279;46.472;30.760;2023-04-25T04:33:17;77808.03;;;-146.33
37414;BMP280;23279;46.472;30.760;2023-04-25T04:35:46;77836.53;;;-146.33
37414;BMP280;23279;46.472;30.760;2023-04-25T04:38:12;77795.84;;;-146.33
37414;BMP280;23279;46.472;30.760;2023-04-25T04:40:40;77803.97;;;-146.33
37414;BMP280;23279;46.472;30.760;2023-04-25T04:43:06;77828.41;;;-146.33
37414;BMP280;23279;46.472;30.760;2023-04-25T04:45:34;77836.53;;;-146.33
37414;BMP280;23279;46.472;30.760;2023-04-25T04:47:59;77836.53;;;-146.33
37414;BMP280;23279;46.472;30.760;2023-04-25T04:50:25;77838.56;;;-146.33
37414;BMP280;23279;46.472;30.760;2023-04-25T04:52:51;77852.81;;;-146.33
37414;BMP280;23279;46.472;30.760;2023-04-25T04:55:17;77852.81;;;-146.33
37414;BMP280;23279;46.472;30.760;2023-04-25T04:57:42;77840.59;;;-146.33
37414;BMP280;23279;46.472;30.760;2023-04-25T05:00:08;77828.41;;;-146.33
37414;BMP280;23279;46.472;30.760;2023-04-25T05:02:37;77848.75;;;-146.33
37414;BMP280;23279;46.472;30.760;2023-04-25T05:05:03;77803.97;;;-146.33
37414;BMP280;23279;46.472;30.760;2023-04-25T05:07:28;77799.91;;;-146.33
37414;BMP280;23279;46.472;30.760;2023-04-25T05:09:54;77795.84;;;-146.33
37414;BMP280;23279;46.472;30.760;2023-04-25T05:12:19;77808.03;;;-146.33
37414;BMP280;23279;46.472;30.760;2023-04-25T05:14:45;77801.94;;;-146.33
37414;BMP280;23279;46.472;30.760;2023-04-25T05:17:10;77793.81;;;-146.33
37414;BMP280;23279;46.472;30.760;2023-04-25T05:19:36;77781.59;;;-146.33
37414;BMP280;23279;46.472;30.760;2023-04-25T05:22:02;77799.91;;;-146.33
37414;BMP280;23279;46.472;30.760;2023-04-25T05:24:27;77759.22;;;-146.33
37414;BMP280;23279;46.472;30.760;2023-04-25T05:26:53;77765.31;;;-146.33
37414;BMP280;23279;46.472;30.760;2023-04-25T05:29:18;77767.34;;;-146.33
37414;BMP280;23279;46.472;30.760;2023-04-25T05:31:44;77769.38;;;-146.33
37414;BMP280;23279;46.472;30.760;2023-04-25T05:34:09;77761.25;;;-146.33
37414;BMP280;23279;46.472;30.760;2023-04-25T05:36:35;77791.78;;;-146.33
37414;BMP280;23279;46.472;30.760;2023-04-25T05:39:00;77810.06;;;-146.33
37414;BMP280;23279;46.472;30.760;2023-04-25T05:41:26;77820.25;;;-146.33
37414;BMP280;23279;46.472;30.760;2023-04-25T05:43:51;77820.25;;;-146.33
37414;BMP280;23279;46.472;30.760;2023-04-25T05:46:16;77775.50;;;-146.33
37414;BMP280;23279;46.472;30.760;2023-04-25T05:48:42;77753.09;;;-146.33
37414;BMP280;23279;46.472;30.760;2023-04-25T05:51:08;77761.25;;;-146.33
37414;BMP280;23279;46.472;30.760;2023-04-25T05:53:34;77761.25;;;-146.33
37414;BMP280;23279;46.472;30.760;2023-04-25T05:55:59;77783.63;;;-146.33
37414;BMP280;23279;46.472;30.760;2023-04-25T05:58:25;77808.03;;;-146.33
37414;BMP280;23279;46.472;30.760;2023-04-25T06:00:50;77753.09;;;-146.33
37414;BMP280;23279;46.472;30.760;2023-04-25T06:03:16;77765.31;;;-146.33
37414;BMP280;23279;46.472;30.760;2023-04-25T06:05:42;77730.72;;;-146.33
37414;BMP280;23279;46.472;30.760;2023-04-25T06:08:08;77720.56;;;-146.33
37414;BMP280;23279;46.472;30.760;2023-04-25T06:10:34;77718.53;;;-146.33
37414;BMP280;23279;46.472;30.760;2023-04-25T06:12:59;77730.72;;;-146.33
37414;BMP280;23279;46.472;30.760;2023-04-25T06:15:25;77718.53;;;-146.33
37414;BMP280;23279;46.472;30.760;2023-04-25T06:17:50;77755.16;;;-146.33
37414;BMP280;23279;46.472;30.760;2023-04-25T06:20:16;77732.75;;;-146.33
37414;BMP280;23279;46.472;30.760;2023-04-25T06:22:41;77767.34;;;-146.33
37414;BMP280;23279;46.472;30.760;2023-04-25T06:25:07;77769.38;;;-146.33
37414;BMP280;23279;46.472;30.760;2023-04-25T06:27:33;77751.06;;;-146.33
37414;BMP280;23279;46.472;30.760;2023-04-25T06:29:58;77726.66;;;-146.33
37414;BMP280;23279;46.472;30.760;2023-04-25T06:32:24;77728.69;;;-146.33
37414;BMP280;23279;46.472;30.760;2023-04-25T06:34:50;77749.03;;;-146.33
37414;BMP280;23279;46.472;30.760;2023-04-25T06:37:15;77742.94;;;-146.33
37414;BMP280;23279;46.472;30.760;2023-04-25T06:39:41;77740.91;;;-146.33
37414;BMP280;23279;46.472;30.760;2023-04-25T06:42:06;77775.50;;;-146.33
37414;BMP280;23279;46.472;30.760;2023-04-25T06:44:32;77755.16;;;-146.33
37414;BMP280;23279;46.472;30.760;2023-04-25T06:46:57;77726.66;;;-146.33
37414;BMP280;23279;46.472;30.760;2023-04-25T06:49:22;77714.44;;;-146.33
37414;BMP280;23279;46.472;30.760;2023-04-25T06:51:48;77730.72;;;-146.33
37414;BMP280;23279;46.472;30.760;2023-04-25T06:54:13;77702.25;;;-146.33
37414;BMP280;23279;46.472;30.760;2023-04-25T06:56:39;77694.09;;;-146.33
37414;BMP280;23279;46.472;30.760;2023-04-25T06:59:04;77716.47;;;-146.33
37414;BMP280;23279;46.472;30.760;2023-04-25T07:01:29;77771.41;;;-146.33
37414;BMP280;23279;46.472;30.760;2023-04-25T07:03:55;77712.41;;;-146.33
37414;BMP280;23279;46.472;30.760;2023-04-25T07:06:21;77706.31;;;-146.33
37414;BMP280;23279;46.472;30.760;2023-04-25T07:08:46;77734.78;;;-146.33
37414;BMP280;23279;46.472;30.760;2023-04-25T07:11:11;77722.59;;;-146.33
37414;BMP280;23279;46.472;30.760;2023-04-25T07:13:37;77702.25;;;-146.33
37414;BMP280;23279;46.472;30.760;2023-04-25T07:16:02;77734.78;;;-146.33
37414;BMP280;23279;46.472;30.760;2023-04-25T07:18:28;77726.66;;;-146.33
37414;BMP280;23279;46.472;30.760;2023-04-25T07:20:54;77708.34;;;-146.33
37414;BMP280;23279;46.472;30.760;2023-04-25T07:23:19;77740.91;;;-146.33
37414;BMP280;23279;46.472;30.760;2023-04-25T07:25:45;77722.59;;;-146.33
37414;BMP280;23279;46.472;30.760;2023-04-25T07:28:10;77732.75;;;-146.33
37414;BMP280;23279;46.472;30.760;2023-04-25T07:30:36;77736.81;;;-146.33
37414;BMP280;23279;46.472;30.760;2023-04-25T07:33:01;77747.00;;;-146.33
37414;BMP280;23279;46.472;30.760;2023-04-25T07:35:27;77757.19;;;-146.33
37414;BMP280;23279;46.472;30.760;2023-04-25T07:37:52;77728.69;;;-146.33
37414;BMP280;23279;46.472;30.760;2023-04-25T07:40:18;77706.31;;;-146.33
37414;BMP280;23279;46.472;30.760;2023-04-25T07:42:43;77742.94;;;-146.33
37414;BMP280;23279;46.472;30.760;2023-04-25T07:45:09;77781.59;;;-146.33
37414;BMP280;23279;46.472;30.760;2023-04-25T07:47:35;77726.66;;;-146.33
37414;BMP280;23279;46.472;30.760;2023-04-25T07:50:02;77722.59;;;-146.33
37414;BMP280;23279;46.472;30.760;2023-04-25T07:52:28;77706.31;;;-146.33
37414;BMP280;23279;46.472;30.760;2023-04-25T07:54:53;77728.69;;;-146.33
37414;BMP280;23279;46.472;30.760;2023-04-25T07:57:19;77702.25;;;-146.33
37414;BMP280;23279;46.472;30.760;2023-04-25T07:59:45;77734.78;;;-146.33
37414;BMP280;23279;46.472;30.760;2023-04-25T08:02:10;77779.56;;;-146.33
37414;BMP280;23279;46.472;30.760;2023-04-25T08:04:36;77777.53;;;-146.33
37414;BMP280;23279;46.472;30.760;2023-04-25T08:07:01;77773.44;;;-146.33
37414;BMP280;23279;46.472;30.760;2023-04-25T08:09:27;77767.34;;;-146.33
37414;BMP280;23279;46.472;30.760;2023-04-25T08:11:52;77779.56;;;-146.33
37414;BMP280;23279;46.472;30.760;2023-04-25T08:14:18;77771.41;;;-146.33
37414;BMP280;23279;46.472;30.760;2023-04-25T08:16:43;77742.94;;;-146.33
37414;BMP280;23279;46.472;30.760;2023-04-25T08:19:12;77779.56;;;-146.33
37414;BMP280;23279;46.472;30.760;2023-04-25T08:21:38;77738.88;;;-146.33
37414;BMP280;23279;46.472;30.760;2023-04-25T08:24:03;77751.06;;;-146.33
37414;BMP280;23279;46.472;30.760;2023-04-25T08:26:29;77714.44;;;-146.33
37414;BMP280;23279;46.472;30.760;2023-04-25T08:28:54;77690.03;;;-146.33
37414;BMP280;23279;46.472;30.760;2023-04-25T08:31:20;77744.97;;;-146.33
37414;BMP280;23279;46.472;30.760;2023-04-25T08:33:45;77702.25;;;-146.33
37414;BMP280;23279;46.472;30.760;2023-04-25T08:36:11;77702.25;;;-146.33
37414;BMP280;23279;46.472;30.760;2023-04-25T08:38:36;77714.44;;;-146.33
37414;BMP280;23279;46.472;30.760;2023-04-25T08:41:02;77718.53;;;-146.33
37414;BMP280;23279;46.472;30.760;2023-04-25T08:43:29;77716.47;;;-146.33
37414;BMP280;23279;46.472;30.760;2023-04-25T08:45:58;77716.47;;;-146.33
37414;BMP280;23279;46.472;30.760;2023-04-25T08:48:27;77706.31;;;-146.33
37414;BMP280;23279;46.472;30.760;2023-04-25T08:50:54;77708.34;;;-146.33
37414;BMP280;23279;46.472;30.760;2023-04-25T08:53:31;77738.88;;;-146.33
37414;BMP280;23279;46.472;30.760;2023-04-25T08:55:59;77751.06;;;-146.33
37414;BMP280;23279;46.472;30.760;2023-04-25T08:58:25;77728.69;;;-146.33
37414;BMP280;23279;46.472;30.760;2023-04-25T09:00:51;77781.59;;;-146.33
37414;BMP280;23279;46.472;30.760;2023-04-25T09:03:18;77738.88;;;-146.33
37414;BMP280;23279;46.472;30.760;2023-04-25T09:05:44;77698.16;;;-146.33
37414;BMP280;23279;46.472;30.760;2023-04-25T09:08:09;77718.53;;;-146.33
37414;BMP280;23279;46.472;30.760;2023-04-25T09:10:36;77738.88;;;-146.33
37414;BMP280;23279;46.472;30.760;2023-04-25T09:13:13;77736.81;;;-146.33
37414;BMP280;23279;46.472;30.760;2023-04-25T09:15:50;77730.72;;;-146.33
37414;BMP280;23279;46.472;30.760;2023-04-25T09:18:27;77734.78;;;-146.33
37414;BMP280;23279;46.472;30.760;2023-04-25T09:20:57;77714.44;;;-146.33
37414;BMP280;23279;46.472;30.760;2023-04-25T09:23:23;77712.41;;;-146.33
37414;BMP280;23279;46.472;30.760;2023-04-25T09:25:50;77744.97;;;-146.33
37414;BMP280;23279;46.472;30.760;2023-04-25T09:28:23;77696.13;;;-146.33
37414;BMP280;23279;46.472;30.760;2023-04-25T09:30:49;77669.69;;;-146.33
37414;BMP280;23279;46.472;30.760;2023-04-25T09:33:14;77657.47;;;-146.33
37414;BMP280;23279;46.472;30.760;2023-04-25T09:35:42;77637.13;;;-146.33
37414;BMP280;23279;46.472;30.760;2023-04-25T09:38:13;77635.09;;;-146.33
37414;BMP280;23279;46.472;30.760;2023-04-25T09:40:43;77649.34;;;-146.33
37414;BMP280;23279;46.472;30.760;2023-04-25T09:43:10;77655.44;;;-146.33
37414;BMP280;23279;46.472;30.760;2023-04-25T09:45:42;77690.03;;;-146.33
37414;BMP280;23279;46.472;30.760;2023-04-25T09:48:11;77702.25;;;-146.33
37414;BMP280;23279;46.472;30.760;2023-04-25T09:50:38;77657.47;;;-146.33
37414;BMP280;23279;46.472;30.760;2023-04-25T09:53:04;77726.66;;;-146.33
37414;BMP280;23279;46.472;30.760;2023-04-25T09:55:32;77799.91;;;-146.33
37414;BMP280;23279;46.472;30.760;2023-04-25T09:58:04;77771.41;;;-146.33
37414;BMP280;23279;46.472;30.760;2023-04-25T10:00:30;77812.13;;;-146.33
37414;BMP280;23279;46.472;30.760;2023-04-25T10:02:57;77808.03;;;-146.33
37414;BMP280;23279;46.472;30.760;2023-04-25T10:05:25;77806.00;;;-146.33
37414;BMP280;23279;46.472;30.760;2023-04-25T10:07:51;77810.06;;;-146.33
37414;BMP280;23279;46.472;30.760;2023-04-25T10:10:17;77820.25;;;-146.33
37414;BMP280;23279;46.472;30.760;2023-04-25T10:12:44;77799.91;;;-146.33
37414;BMP280;23279;46.472;30.760;2023-04-25T10:15:10;77771.41;;;-146.33
37414;BMP280;23279;46.472;30.760;2023-04-25T10:17:38;77810.06;;;-146.33
37414;BMP280;23279;46.472;30.760;2023-04-25T10:20:04;77840.59;;;-146.33
37414;BMP280;23279;46.472;30.760;2023-04-25T10:22:42;77842.63;;;-146.33
37414;BMP280;23279;46.472;30.760;2023-04-25T10:25:09;77803.97;;;-146.33
37414;BMP280;23279;46.472;30.760;2023-04-25T10:27:35;77826.34;;;-146.33
37414;BMP280;23279;46.472;30.760;2023-04-25T10:30:36;77836.53;;;-146.33
37414;BMP280;23279;46.472;30.760;2023-04-25T10:32:55;77812.13;;;-146.33
37414;BMP280;23279;46.472;30.760;2023-04-25T10:35:25;77812.13;;;-146.33
37414;BMP280;23279;46.472;30.760;2023-04-25T10:37:59;77747.00;;;-146.33
37414;BMP280;23279;46.472;30.760;2023-04-25T10:40:25;77767.34;;;-146.33
37414;BMP280;23279;46.472;30.760;2023-04-25T10:42:54;77757.19;;;-146.33
37414;BMP280;23279;46.472;30.760;2023-04-25T10:45:20;77781.59;;;-146.33
37414;BMP280;23279;46.472;30.760;2023-04-25T10:47:46;77734.78;;;-146.33
37414;BMP280;23279;46.472;30.760;2023-04-25T10:50:12;77779.56;;;-146.33
37414;BMP280;23279;46.472;30.760;2023-04-25T10:52:39;77765.31;;;-146.33
37414;BMP280;23279;46.472;30.760;2023-04-25T10:55:05;77771.41;;;-146.33
37414;BMP280;23279;46.472;30.760;2023-04-25T11:00:19;77783.63;;;-146.33
37414;BMP280;23279;46.472;30.760;2023-04-25T11:02:46;77759.22;;;-146.33
37414;BMP280;23279;46.472;30.760;2023-04-25T11:05:36;77722.59;;;-146.33
37414;BMP280;23279;46.472;30.760;2023-04-25T11:08:02;77704.28;;;-146.33
37414;BMP280;23279;46.472;30.760;2023-04-25T11:10:30;77726.66;;;-146.33
37414;BMP280;23279;46.472;30.760;2023-04-25T11:12:59;77763.28;;;-146.33
37414;BMP280;23279;46.472;30.760;2023-04-25T11:15:25;77763.28;;;-146.33
37414;BMP280;23279;46.472;30.760;2023-04-25T11:17:54;77716.47;;;-146.33
37414;BMP280;23279;46.472;30.760;2023-04-25T11:20:21;77706.31;;;-146.33
37414;BMP280;23279;46.472;30.760;2023-04-25T11:22:47;77677.81;;;-146.33
37414;BMP280;23279;46.472;30.760;2023-04-25T11:25:15;77669.69;;;-146.33
37414;BMP280;23279;46.472;30.760;2023-04-25T11:27:54;77671.72;;;-146.33
37414;BMP280;23279;46.472;30.760;2023-04-25T11:30:21;77665.63;;;-146.33
37414;BMP280;23279;46.472;30.760;2023-04-25T11:32:47;77641.19;;;-146.33
37414;BMP280;23279;46.472;30.760;2023-04-25T11:35:13;77653.41;;;-146.33
37414;BMP280;23279;46.472;30.760;2023-04-25T11:37:40;77653.41;;;-146.33
37414;BMP280;23279;46.472;30.760;2023-04-25T11:40:06;77673.75;;;-146.33
37414;BMP280;23279;46.472;30.760;2023-04-25T11:42:32;77669.69;;;-146.33
37414;BMP280;23279;46.472;30.760;2023-04-25T11:44:58;77663.59;;;-146.33
37414;BMP280;23279;46.472;30.760;2023-04-25T11:47:31;77708.34;;;-146.33
37414;BMP280;23279;46.472;30.760;2023-04-25T11:50:01;77673.75;;;-146.33
37414;BMP280;23279;46.472;30.760;2023-04-25T11:52:40;77708.34;;;-146.33
37414;BMP280;23279;46.472;30.760;2023-04-25T11:55:07;77677.81;;;-146.33
37414;BMP280;23279;46.472;30.760;2023-04-25T11:57:33;77677.81;;;-146.33
37414;BMP280;23279;46.472;30.760;2023-04-25T12:02:37;77751.06;;;-146.33
37414;BMP280;23279;46.472;30.760;2023-04-25T12:05:06;77747.00;;;-146.33
37414;BMP280;23279;46.472;30.760;2023-04-25T12:07:33;77706.31;;;-146.33
37414;BMP280;23279;46.472;30.760;2023-04-25T12:09:59;77665.63;;;-146.33
37414;BMP280;23279;46.472;30.760;2023-04-25T12:12:32;77631.03;;;-146.33
37414;BMP280;23279;46.472;30.760;2023-04-25T12:15:17;77629.00;;;-146.33
37414;BMP280;23279;46.472;30.760;2023-04-25T12:17:46;77653.41;;;-146.33
37414;BMP280;23279;46.472;30.760;2023-04-25T12:20:16;77614.75;;;-146.33
37414;BMP280;23279;46.472;30.760;2023-04-25T12:22:46;77657.47;;;-146.33
37414;BMP280;23279;46.472;30.760;2023-04-25T12:25:13;77620.84;;;-146.33
37414;BMP280;23279;46.472;30.760;2023-04-25T12:27:39;77590.34;;;-146.33
37414;BMP280;23279;46.472;30.760;2023-04-25T12:30:07;77572.03;;;-146.33
37414;BMP280;23279;46.472;30.760;2023-04-25T12:32:34;77651.38;;;-146.33
37414;BMP280;23279;46.472;30.760;2023-04-25T12:35:00;77637.13;;;-146.33
37414;BMP280;23279;46.472;30.760;2023-04-25T12:37:26;77633.06;;;-146.33
37414;BMP280;23279;46.472;30.760;2023-04-25T12:39:52;77706.31;;;-146.33
37414;BMP280;23279;46.472;30.760;2023-04-25T12:42:17;77694.09;;;-146.33
37414;BMP280;23279;46.472;30.760;2023-04-25T12:44:42;77690.03;;;-146.33
37414;BMP280;23279;46.472;30.760;2023-04-25T12:47:08;77631.03;;;-146.33
37414;BMP280;23279;46.472;30.760;2023-04-25T12:49:34;77606.63;;;-146.33
37414;BMP280;23279;46.472;30.760;2023-04-25T12:52:00;77590.34;;;-146.33
37414;BMP280;23279;46.472;30.760;2023-04-25T12:54:26;77633.06;;;-146.33
37414;BMP280;23279;46.472;30.760;2023-04-25T12:56:52;77612.72;;;-146.33
37414;BMP280;23279;46.472;30.760;2023-04-25T12:59:18;77620.84;;;-146.33
37414;BMP280;23279;46.472;30.760;2023-04-25T13:01:45;77578.13;;;-146.33
37414;BMP280;23279;46.472;30.760;2023-04-25T13:04:12;77618.81;;;-146.33
37414;BMP280;23279;46.472;30.760;2023-04-25T13:06:38;77641.19;;;-146.33
37414;BMP280;23279;46.472;30.760;2023-04-25T13:09:03;77616.78;;;-146.33
37414;BMP280;23279;46.472;30.760;2023-04-25T13:11:29;77592.38;;;-146.33
37414;BMP280;23279;46.472;30.760;2023-04-25T13:13:55;77637.13;;;-146.33
37414;BMP280;23279;46.472;30.760;2023-04-25T13:16:21;77622.88;;;-146.33
37414;BMP280;23279;46.472;30.760;2023-04-25T13:18:47;77633.06;;;-146.33
37414;BMP280;23279;46.472;30.760;2023-04-25T13:21:13;77645.28;;;-146.33
37414;BMP280;23279;46.472;30.760;2023-04-25T13:23:39;77612.72;;;-146.33
37414;BMP280;23279;46.472;30.760;2023-04-25T13:26:04;77639.16;;;-146.33
37414;BMP280;23279;46.472;30.760;2023-04-25T13:28:30;77655.44;;;-146.33
37414;BMP280;23279;46.472;30.760;2023-04-25T13:30:56;77588.31;;;-146.33
37414;BMP280;23279;46.472;30.760;2023-04-25T13:33:21;77629.00;;;-146.33
37414;BMP280;23279;46.472;30.760;2023-04-25T13:35:49;77608.66;;;-146.33